sensor_id;sensor_type;location;lat;lon;timestamp;P1;durP1;ratioP1;P2;durP2;ratioP2
47309;SDS011;33046;52.270;6.832;2023-04-21T00:00:49;12.38;;;11.18;;
47309;SDS011;33046;52.270;6.832;2023-04-21T00:02:56;13.18;;;11.05;;
47309;SDS011;33046;52.270;6.832;2023-04-21T00:05:03;13.02;;;11.82;;
47309;SDS011;33046;52.270;6.832;2023-04-21T00:07:11;12.57;;;11.35;;
47309;SDS011;33046;52.270;6.832;2023-04-21T00:09:17;14.50;;;12.38;;
47309;SDS011;33046;52.270;6.832;2023-04-21T00:11:26;13.15;;;11.75;;
47309;SDS011;33046;52.270;6.832;2023-04-21T00:13:32;11.18;;;10.02;;
47309;SDS011;33046;52.270;6.832;2023-04-21T00:15:39;12.27;;;11.07;;
47309;SDS011;33046;52.270;6.832;2023-04-21T00:17:46;15.82;;;10.60;;
47309;SDS011;33046;52.270;6.832;2023-04-21T00:19:53;15.65;;;11.13;;
47309;SDS011;33046;52.270;6.832;2023-04-21T00:22:00;13.70;;;12.20;;
47309;SDS011;33046;52.270;6.832;2023-04-21T00:24:07;13.85;;;11.60;;
47309;SDS011;33046;52.270;6.832;2023-04-21T00:26:14;13.60;;;12.20;;
47309;SDS011;33046;52.270;6.832;2023-04-21T00:28:24;12.45;;;10.70;;
47309;SDS011;33046;52.270;6.832;2023-04-21T00:30:31;18.77;;;11.93;;
47309;SDS011;33046;52.270;6.832;2023-04-21T00:32:38;13.98;;;11.50;;
47309;SDS011;33046;52.270;6.832;2023-04-21T00:34:45;16.25;;;12.73;;
47309;SDS011;33046;52.270;6.832;2023-04-21T00:36:51;13.02;;;11.60;;
47309;SDS011;33046;52.270;6.832;2023-04-21T00:38:59;13.15;;;11.90;;
47309;SDS011;33046;52.270;6.832;2023-04-21T00:41:07;14.13;;;11.32;;
47309;SDS011;33046;52.270;6.832;2023-04-21T00:43:16;13.23;;;11.75;;
47309;SDS011;33046;52.270;6.832;2023-04-21T00:45:24;13.05;;;11.73;;
47309;SDS011;33046;52.270;6.832;2023-04-21T00:47:31;16.00;;;11.82;;
47309;SDS011;33046;52.270;6.832;2023-04-21T00:49:38;13.40;;;11.73;;
47309;SDS011;33046;52.270;6.832;2023-04-21T00:51:45;13.80;;;12.07;;
47309;SDS011;33046;52.270;6.832;2023-04-21T00:53:54;18.33;;;11.95;;
47309;SDS011;33046;52.270;6.832;2023-04-21T00:56:01;16.63;;;12.32;;
47309;SDS011;33046;52.270;6.832;2023-04-21T00:58:08;17.80;;;13.25;;
47309;SDS011;33046;52.270;6.832;2023-04-21T01:00:15;14.48;;;13.00;;
47309;SDS011;33046;52.270;6.832;2023-04-21T01:02:24;16.50;;;12.43;;
47309;SDS011;33046;52.270;6.832;2023-04-21T01:04:31;14.23;;;12.68;;
47309;SDS011;33046;52.270;6.832;2023-04-21T01:06:37;14.05;;;12.52;;
47309;SDS011;33046;52.270;6.832;2023-04-21T01:08:45;14.50;;;12.68;;
47309;SDS011;33046;52.270;6.832;2023-04-21T01:10:54;15.35;;;12.80;;
47309;SDS011;33046;52.270;6.832;2023-04-21T01:13:01;19.73;;;13.75;;
47309;SDS011;33046;52.270;6.832;2023-04-21T01:15:08;14.68;;;13.23;;
47309;SDS011;33046;52.270;6.832;2023-04-21T01:17:15;14.82;;;12.00;;
47309;SDS011;33046;52.270;6.832;2023-04-21T01:19:27;14.35;;;12.15;;
47309;SDS011;33046;52.270;6.832;2023-04-21T01:21:39;14.73;;;12.13;;
47309;SDS011;33046;52.270;6.832;2023-04-21T01:23:45;16.45;;;12.63;;
47309;SDS011;33046;52.270;6.832;2023-04-21T01:25:52;14.88;;;13.05;;
47309;SDS011;33046;52.270;6.832;2023-04-21T01:27:59;17.00;;;13.90;;
47309;SDS011;33046;52.270;6.832;2023-04-21T01:30:06;13.02;;;11.48;;
47309;SDS011;33046;52.270;6.832;2023-04-21T01:32:14;13.25;;;11.68;;
47309;SDS011;33046;52.270;6.832;2023-04-21T01:34:24;15.02;;;13.23;;
47309;SDS011;33046;52.270;6.832;2023-04-21T01:36:30;13.48;;;12.05;;
47309;SDS011;33046;52.270;6.832;2023-04-21T01:38:39;13.93;;;12.15;;
47309;SDS011;33046;52.270;6.832;2023-04-21T01:40:47;13.05;;;11.75;;
47309;SDS011;33046;52.270;6.832;2023-04-21T01:42:56;14.77;;;13.25;;
47309;SDS011;33046;52.270;6.832;2023-04-21T01:45:04;14.68;;;13.15;;
47309;SDS011;33046;52.270;6.832;2023-04-21T01:47:12;17.13;;;12.65;;
47309;SDS011;33046;52.270;6.832;2023-04-21T01:49:18;14.93;;;12.90;;
47309;SDS011;33046;52.270;6.832;2023-04-21T01:51:27;13.88;;;11.85;;
47309;SDS011;33046;52.270;6.832;2023-04-21T01:53:33;13.68;;;12.20;;
47309;SDS011;33046;52.270;6.832;2023-04-21T01:55:41;14.88;;;12.38;;
47309;SDS011;33046;52.270;6.832;2023-04-21T01:57:48;13.30;;;11.95;;
47309;SDS011;33046;52.270;6.832;2023-04-21T01:59:55;17.75;;;13.48;;
47309;SDS011;33046;52.270;6.832;2023-04-21T02:02:02;15.25;;;13.65;;
47309;SDS011;33046;52.270;6.832;2023-04-21T02:04:11;16.33;;;13.60;;
47309;SDS011;33046;52.270;6.832;2023-04-21T02:06:18;14.60;;;13.18;;
47309;SDS011;33046;52.270;6.832;2023-04-21T02:08:25;14.73;;;12.60;;
47309;SDS011;33046;52.270;6.832;2023-04-21T02:10:32;16.27;;;13.90;;
47309;SDS011;33046;52.270;6.832;2023-04-21T02:12:40;15.82;;;13.50;;
47309;SDS011;33046;52.270;6.832;2023-04-21T02:14:48;15.80;;;14.07;;
47309;SDS011;33046;52.270;6.832;2023-04-21T02:16:56;16.75;;;13.75;;
47309;SDS011;33046;52.270;6.832;2023-04-21T02:19:03;16.77;;;14.20;;
47309;SDS011;33046;52.270;6.832;2023-04-21T02:21:11;13.95;;;12.52;;
47309;SDS011;33046;52.270;6.832;2023-04-21T02:23:18;15.77;;;14.20;;
47309;SDS011;33046;52.270;6.832;2023-04-21T02:25:27;14.77;;;13.38;;
47309;SDS011;33046;52.270;6.832;2023-04-21T02:27:33;13.93;;;12.52;;
47309;SDS011;33046;52.270;6.832;2023-04-21T02:29:41;14.82;;;13.32;;
47309;SDS011;33046;52.270;6.832;2023-04-21T02:31:48;15.27;;;13.20;;
47309;SDS011;33046;52.270;6.832;2023-04-21T02:34:02;16.85;;;12.15;;
47309;SDS011;33046;52.270;6.832;2023-04-21T02:36:10;15.40;;;12.98;;
47309;SDS011;33046;52.270;6.832;2023-04-21T02:38:16;13.73;;;12.43;;
47309;SDS011;33046;52.270;6.832;2023-04-21T02:40:23;14.63;;;13.13;;
47309;SDS011;33046;52.270;6.832;2023-04-21T02:42:31;15.00;;;13.38;;
47309;SDS011;33046;52.270;6.832;2023-04-21T02:44:38;14.95;;;13.20;;
47309;SDS011;33046;52.270;6.832;2023-04-21T02:46:46;15.98;;;14.05;;
47309;SDS011;33046;52.270;6.832;2023-04-21T02:48:53;15.00;;;13.48;;
47309;SDS011;33046;52.270;6.832;2023-04-21T02:51:00;15.45;;;12.95;;
47309;SDS011;33046;52.270;6.832;2023-04-21T02:53:07;16.05;;;13.40;;
47309;SDS011;33046;52.270;6.832;2023-04-21T02:55:14;16.63;;;13.60;;
47309;SDS011;33046;52.270;6.832;2023-04-21T02:57:20;14.95;;;13.38;;
47309;SDS011;33046;52.270;6.832;2023-04-21T02:59:27;16.35;;;12.88;;
47309;SDS011;33046;52.270;6.832;2023-04-21T03:01:37;15.30;;;12.23;;
47309;SDS011;33046;52.270;6.832;2023-04-21T03:03:47;17.55;;;14.80;;
47309;SDS011;33046;52.270;6.832;2023-04-21T03:05:55;21.98;;;13.18;;
47309;SDS011;33046;52.270;6.832;2023-04-21T03:08:02;13.70;;;12.40;;
47309;SDS011;33046;52.270;6.832;2023-04-21T03:10:09;19.83;;;13.57;;
47309;SDS011;33046;52.270;6.832;2023-04-21T03:12:16;16.95;;;13.30;;
47309;SDS011;33046;52.270;6.832;2023-04-21T03:14:23;15.75;;;12.68;;
47309;SDS011;33046;52.270;6.832;2023-04-21T03:16:29;15.50;;;13.40;;
47309;SDS011;33046;52.270;6.832;2023-04-21T03:18:36;16.05;;;13.57;;
47309;SDS011;33046;52.270;6.832;2023-04-21T03:20:44;17.40;;;13.38;;
47309;SDS011;33046;52.270;6.832;2023-04-21T03:22:51;20.67;;;14.88;;
47309;SDS011;33046;52.270;6.832;2023-04-21T03:24:58;17.50;;;13.52;;
47309;SDS011;33046;52.270;6.832;2023-04-21T03:27:05;15.25;;;13.38;;
47309;SDS011;33046;52.270;6.832;2023-04-21T03:29:12;14.40;;;12.88;;
47309;SDS011;33046;52.270;6.832;2023-04-21T03:31:20;17.20;;;13.65;;
47309;SDS011;33046;52.270;6.832;2023-04-21T03:33:27;15.52;;;13.73;;
47309;SDS011;33046;52.270;6.832;2023-04-21T03:35:34;17.35;;;14.32;;
47309;SDS011;33046;52.270;6.832;2023-04-21T03:37:42;14.57;;;13.05;;
47309;SDS011;33046;52.270;6.832;2023-04-21T03:39:48;13.95;;;12.75;;
47309;SDS011;33046;52.270;6.832;2023-04-21T03:41:57;15.05;;;13.20;;
47309;SDS011;33046;52.270;6.832;2023-04-21T03:44:04;14.05;;;12.55;;
47309;SDS011;33046;52.270;6.832;2023-04-21T03:46:17;15.85;;;14.23;;
47309;SDS011;33046;52.270;6.832;2023-04-21T03:48:24;15.20;;;13.65;;
47309;SDS011;33046;52.270;6.832;2023-04-21T03:50:33;15.18;;;13.73;;
47309;SDS011;33046;52.270;6.832;2023-04-21T03:52:40;15.43;;;13.82;;
47309;SDS011;33046;52.270;6.832;2023-04-21T03:54:48;17.73;;;13.98;;
47309;SDS011;33046;52.270;6.832;2023-04-21T03:56:54;16.02;;;14.30;;
47309;SDS011;33046;52.270;6.832;2023-04-21T03:59:01;16.40;;;14.18;;
47309;SDS011;33046;52.270;6.832;2023-04-21T04:01:08;17.00;;;15.30;;
47309;SDS011;33046;52.270;6.832;2023-04-21T04:03:15;15.57;;;13.48;;
47309;SDS011;33046;52.270;6.832;2023-04-21T04:05:22;16.77;;;14.07;;
47309;SDS011;33046;52.270;6.832;2023-04-21T04:07:29;15.63;;;14.07;;
47309;SDS011;33046;52.270;6.832;2023-04-21T04:09:37;15.02;;;13.63;;
47309;SDS011;33046;52.270;6.832;2023-04-21T04:11:44;16.08;;;14.38;;
47309;SDS011;33046;52.270;6.832;2023-04-21T04:13:51;16.00;;;14.45;;
47309;SDS011;33046;52.270;6.832;2023-04-21T04:15:57;14.27;;;12.77;;
47309;SDS011;33046;52.270;6.832;2023-04-21T04:18:04;15.25;;;13.80;;
47309;SDS011;33046;52.270;6.832;2023-04-21T04:20:11;15.07;;;13.73;;
47309;SDS011;33046;52.270;6.832;2023-04-21T04:22:18;15.20;;;13.65;;
47309;SDS011;33046;52.270;6.832;2023-04-21T04:24:25;14.32;;;13.00;;
47309;SDS011;33046;52.270;6.832;2023-04-21T04:26:33;14.85;;;13.25;;
47309;SDS011;33046;52.270;6.832;2023-04-21T04:28:40;15.05;;;13.40;;
47309;SDS011;33046;52.270;6.832;2023-04-21T04:30:46;16.63;;;14.85;;
47309;SDS011;33046;52.270;6.832;2023-04-21T04:32:53;15.75;;;14.18;;
47309;SDS011;33046;52.270;6.832;2023-04-21T04:35:00;16.05;;;14.45;;
47309;SDS011;33046;52.270;6.832;2023-04-21T04:37:07;15.93;;;14.32;;
47309;SDS011;33046;52.270;6.832;2023-04-21T04:39:14;16.27;;;14.50;;
47309;SDS011;33046;52.270;6.832;2023-04-21T04:41:21;16.02;;;14.27;;
47309;SDS011;33046;52.270;6.832;2023-04-21T04:43:30;17.60;;;15.80;;
47309;SDS011;33046;52.270;6.832;2023-04-21T04:45:36;18.05;;;16.30;;
47309;SDS011;33046;52.270;6.832;2023-04-21T04:47:43;16.80;;;15.02;;
47309;SDS011;33046;52.270;6.832;2023-04-21T04:49:50;17.48;;;14.98;;
47309;SDS011;33046;52.270;6.832;2023-04-21T04:51:57;14.82;;;13.32;;
47309;SDS011;33046;52.270;6.832;2023-04-21T04:54:03;17.92;;;15.40;;
47309;SDS011;33046;52.270;6.832;2023-04-21T04:56:10;16.70;;;14.25;;
47309;SDS011;33046;52.270;6.832;2023-04-21T04:58:17;17.38;;;13.93;;
47309;SDS011;33046;52.270;6.832;2023-04-21T05:00:25;16.45;;;14.75;;
47309;SDS011;33046;52.270;6.832;2023-04-21T05:02:32;15.20;;;13.40;;
47309;SDS011;33046;52.270;6.832;2023-04-21T05:04:39;17.83;;;14.90;;
47309;SDS011;33046;52.270;6.832;2023-04-21T05:06:46;16.67;;;15.02;;
47309;SDS011;33046;52.270;6.832;2023-04-21T05:08:52;20.45;;;14.45;;
47309;SDS011;33046;52.270;6.832;2023-04-21T05:10:59;16.17;;;13.50;;
47309;SDS011;33046;52.270;6.832;2023-04-21T05:13:06;17.63;;;14.05;;
47309;SDS011;33046;52.270;6.832;2023-04-21T05:15:13;17.83;;;15.07;;
47309;SDS011;33046;52.270;6.832;2023-04-21T05:17:21;17.08;;;14.82;;
47309;SDS011;33046;52.270;6.832;2023-04-21T05:19:28;18.70;;;14.57;;
47309;SDS011;33046;52.270;6.832;2023-04-21T05:21:34;15.00;;;13.48;;
47309;SDS011;33046;52.270;6.832;2023-04-21T05:23:41;17.60;;;15.30;;
47309;SDS011;33046;52.270;6.832;2023-04-21T05:25:48;16.70;;;14.50;;
47309;SDS011;33046;52.270;6.832;2023-04-21T05:27:55;19.42;;;13.68;;
47309;SDS011;33046;52.270;6.832;2023-04-21T05:30:01;15.23;;;13.75;;
47309;SDS011;33046;52.270;6.832;2023-04-21T05:32:09;16.60;;;13.45;;
47309;SDS011;33046;52.270;6.832;2023-04-21T05:34:17;16.02;;;14.45;;
47309;SDS011;33046;52.270;6.832;2023-04-21T05:36:24;16.85;;;13.75;;
47309;SDS011;33046;52.270;6.832;2023-04-21T05:38:30;15.77;;;14.35;;
47309;SDS011;33046;52.270;6.832;2023-04-21T05:40:37;15.60;;;14.02;;
47309;SDS011;33046;52.270;6.832;2023-04-21T05:42:44;14.02;;;12.60;;
47309;SDS011;33046;52.270;6.832;2023-04-21T05:44:51;17.08;;;15.35;;
47309;SDS011;33046;52.270;6.832;2023-04-21T05:46:57;17.58;;;14.68;;
47309;SDS011;33046;52.270;6.832;2023-04-21T05:49:04;16.92;;;15.00;;
47309;SDS011;33046;52.270;6.832;2023-04-21T05:51:13;15.27;;;13.73;;
47309;SDS011;33046;52.270;6.832;2023-04-21T05:53:20;15.85;;;14.23;;
47309;SDS011;33046;52.270;6.832;2023-04-21T05:55:27;15.40;;;12.77;;
47309;SDS011;33046;52.270;6.832;2023-04-21T05:57:34;16.15;;;13.65;;
47309;SDS011;33046;52.270;6.832;2023-04-21T05:59:41;15.85;;;13.55;;
47309;SDS011;33046;52.270;6.832;2023-04-21T06:01:47;16.25;;;13.95;;
47309;SDS011;33046;52.270;6.832;2023-04-21T06:03:55;15.93;;;14.30;;
47309;SDS011;33046;52.270;6.832;2023-04-21T06:06:02;15.75;;;14.10;;
47309;SDS011;33046;52.270;6.832;2023-04-21T06:08:11;16.63;;;14.65;;
47309;SDS011;33046;52.270;6.832;2023-04-21T06:10:18;15.43;;;13.93;;
47309;SDS011;33046;52.270;6.832;2023-04-21T06:12:25;16.30;;;14.57;;
47309;SDS011;33046;52.270;6.832;2023-04-21T06:14:32;16.15;;;14.45;;
47309;SDS011;33046;52.270;6.832;2023-04-21T06:16:39;16.25;;;14.65;;
47309;SDS011;33046;52.270;6.832;2023-04-21T06:18:45;17.77;;;14.43;;
47309;SDS011;33046;52.270;6.832;2023-04-21T06:20:52;16.38;;;14.68;;
47309;SDS011;33046;52.270;6.832;2023-04-21T06:23:00;15.43;;;13.65;;
47309;SDS011;33046;52.270;6.832;2023-04-21T06:25:08;16.88;;;13.85;;
47309;SDS011;33046;52.270;6.832;2023-04-21T06:27:15;15.52;;;12.88;;
47309;SDS011;33046;52.270;6.832;2023-04-21T06:29:22;15.40;;;13.57;;
47309;SDS011;33046;52.270;6.832;2023-04-21T06:31:29;15.43;;;12.63;;
47309;SDS011;33046;52.270;6.832;2023-04-21T06:33:35;15.88;;;13.57;;
47309;SDS011;33046;52.270;6.832;2023-04-21T06:35:42;13.55;;;12.25;;
47309;SDS011;33046;52.270;6.832;2023-04-21T06:37:49;13.73;;;12.52;;
47309;SDS011;33046;52.270;6.832;2023-04-21T06:39:56;14.25;;;12.85;;
47309;SDS011;33046;52.270;6.832;2023-04-21T06:42:04;15.18;;;13.68;;
47309;SDS011;33046;52.270;6.832;2023-04-21T06:44:18;14.30;;;12.43;;
47309;SDS011;33046;52.270;6.832;2023-04-21T06:46:25;14.60;;;13.10;;
47309;SDS011;33046;52.270;6.832;2023-04-21T06:48:32;19.40;;;13.15;;
47309;SDS011;33046;52.270;6.832;2023-04-21T06:50:39;13.88;;;12.48;;
47309;SDS011;33046;52.270;6.832;2023-04-21T06:52:46;13.57;;;12.23;;
47309;SDS011;33046;52.270;6.832;2023-04-21T06:54:52;16.88;;;12.93;;
47309;SDS011;33046;52.270;6.832;2023-04-21T06:56:59;15.27;;;12.18;;
47309;SDS011;33046;52.270;6.832;2023-04-21T06:59:07;14.50;;;13.00;;
47309;SDS011;33046;52.270;6.832;2023-04-21T07:01:14;15.25;;;12.75;;
47309;SDS011;33046;52.270;6.832;2023-04-21T07:03:21;14.68;;;13.18;;
47309;SDS011;33046;52.270;6.832;2023-04-21T07:05:28;14.07;;;12.68;;
47309;SDS011;33046;52.270;6.832;2023-04-21T07:07:35;13.02;;;11.73;;
47309;SDS011;33046;52.270;6.832;2023-04-21T07:09:42;18.23;;;12.00;;
47309;SDS011;33046;52.270;6.832;2023-04-21T07:11:48;13.75;;;12.30;;
47309;SDS011;33046;52.270;6.832;2023-04-21T07:13:55;16.73;;;13.43;;
47309;SDS011;33046;52.270;6.832;2023-04-21T07:16:04;14.40;;;13.00;;
47309;SDS011;33046;52.270;6.832;2023-04-21T07:18:11;16.00;;;12.20;;
47309;SDS011;33046;52.270;6.832;2023-04-21T07:20:18;14.13;;;12.43;;
47309;SDS011;33046;52.270;6.832;2023-04-21T07:22:24;13.77;;;12.38;;
47309;SDS011;33046;52.270;6.832;2023-04-21T07:24:31;14.73;;;13.43;;
47309;SDS011;33046;52.270;6.832;2023-04-21T07:26:38;13.98;;;11.65;;
47309;SDS011;33046;52.270;6.832;2023-04-21T07:28:45;14.70;;;12.55;;
47309;SDS011;33046;52.270;6.832;2023-04-21T07:30:51;15.23;;;11.90;;
47309;SDS011;33046;52.270;6.832;2023-04-21T07:32:59;13.27;;;11.98;;
47309;SDS011;33046;52.270;6.832;2023-04-21T07:35:07;13.02;;;11.63;;
47309;SDS011;33046;52.270;6.832;2023-04-21T07:37:14;12.75;;;11.55;;
47309;SDS011;33046;52.270;6.832;2023-04-21T07:39:20;13.85;;;12.45;;
47309;SDS011;33046;52.270;6.832;2023-04-21T07:41:27;13.63;;;12.23;;
47309;SDS011;33046;52.270;6.832;2023-04-21T07:43:34;13.57;;;12.18;;
47309;SDS011;33046;52.270;6.832;2023-04-21T07:45:41;14.40;;;12.93;;
47309;SDS011;33046;52.270;6.832;2023-04-21T07:47:47;14.38;;;12.98;;
47309;SDS011;33046;52.270;6.832;2023-04-21T07:49:56;15.55;;;12.23;;
47309;SDS011;33046;52.270;6.832;2023-04-21T07:52:02;15.60;;;13.25;;
47309;SDS011;33046;52.270;6.832;2023-04-21T07:54:09;12.90;;;11.27;;
47309;SDS011;33046;52.270;6.832;2023-04-21T07:56:16;19.52;;;12.93;;
47309;SDS011;33046;52.270;6.832;2023-04-21T07:58:23;12.90;;;11.70;;
47309;SDS011;33046;52.270;6.832;2023-04-21T08:00:30;12.88;;;11.43;;
47309;SDS011;33046;52.270;6.832;2023-04-21T08:02:36;15.95;;;13.32;;
47309;SDS011;33046;52.270;6.832;2023-04-21T08:04:43;14.75;;;13.10;;
47309;SDS011;33046;52.270;6.832;2023-04-21T08:06:51;15.20;;;12.05;;
47309;SDS011;33046;52.270;6.832;2023-04-21T08:08:58;15.65;;;12.70;;
47309;SDS011;33046;52.270;6.832;2023-04-21T08:11:05;13.07;;;11.77;;
47309;SDS011;33046;52.270;6.832;2023-04-21T08:13:12;13.07;;;11.88;;
47309;SDS011;33046;52.270;6.832;2023-04-21T08:15:19;14.25;;;12.75;;
47309;SDS011;33046;52.270;6.832;2023-04-21T08:17:26;17.17;;;13.18;;
47309;SDS011;33046;52.270;6.832;2023-04-21T08:19:33;14.68;;;13.10;;
47309;SDS011;33046;52.270;6.832;2023-04-21T08:21:39;14.32;;;12.90;;
47309;SDS011;33046;52.270;6.832;2023-04-21T08:23:47;14.73;;;11.93;;
47309;SDS011;33046;52.270;6.832;2023-04-21T08:25:54;15.00;;;13.60;;
47309;SDS011;33046;52.270;6.832;2023-04-21T08:28:01;16.50;;;13.35;;
47309;SDS011;33046;52.270;6.832;2023-04-21T08:30:08;19.73;;;13.73;;
47309;SDS011;33046;52.270;6.832;2023-04-21T08:32:16;16.42;;;13.80;;
47309;SDS011;33046;52.270;6.832;2023-04-21T08:34:22;18.95;;;12.65;;
47309;SDS011;33046;52.270;6.832;2023-04-21T08:36:30;14.82;;;13.38;;
47309;SDS011;33046;52.270;6.832;2023-04-21T08:38:37;16.15;;;14.60;;
47309;SDS011;33046;52.270;6.832;2023-04-21T08:40:45;15.27;;;13.35;;
47309;SDS011;33046;52.270;6.832;2023-04-21T08:42:52;16.50;;;12.82;;
47309;SDS011;33046;52.270;6.832;2023-04-21T08:44:59;15.55;;;14.02;;
47309;SDS011;33046;52.270;6.832;2023-04-21T08:47:06;17.67;;;13.50;;
47309;SDS011;33046;52.270;6.832;2023-04-21T08:49:15;20.20;;;14.82;;
47309;SDS011;33046;52.270;6.832;2023-04-21T08:51:26;15.13;;;13.57;;
47309;SDS011;33046;52.270;6.832;2023-04-21T08:53:33;14.55;;;13.05;;
47309;SDS011;33046;52.270;6.832;2023-04-21T08:55:40;16.05;;;14.20;;
47309;SDS011;33046;52.270;6.832;2023-04-21T08:57:48;15.60;;;13.95;;
47309;SDS011;33046;52.270;6.832;2023-04-21T08:59:55;15.60;;;13.52;;
47309;SDS011;33046;52.270;6.832;2023-04-21T09:02:05;16.77;;;13.88;;
47309;SDS011;33046;52.270;6.832;2023-04-21T09:04:16;17.65;;;15.00;;
47309;SDS011;33046;52.270;6.832;2023-04-21T09:06:23;18.05;;;14.95;;
47309;SDS011;33046;52.270;6.832;2023-04-21T09:08:51;16.60;;;14.43;;
47309;SDS011;33046;52.270;6.832;2023-04-21T09:10:59;15.15;;;13.60;;
47309;SDS011;33046;52.270;6.832;2023-04-21T09:13:08;17.83;;;14.75;;
47309;SDS011;33046;52.270;6.832;2023-04-21T09:15:15;14.80;;;13.07;;
47309;SDS011;33046;52.270;6.832;2023-04-21T09:17:27;15.75;;;13.88;;
47309;SDS011;33046;52.270;6.832;2023-04-21T09:19:34;17.13;;;14.63;;
47309;SDS011;33046;52.270;6.832;2023-04-21T09:21:42;16.20;;;14.07;;
47309;SDS011;33046;52.270;6.832;2023-04-21T09:23:50;16.30;;;13.82;;
47309;SDS011;33046;52.270;6.832;2023-04-21T09:25:57;15.65;;;14.07;;
47309;SDS011;33046;52.270;6.832;2023-04-21T09:28:06;17.00;;;14.60;;
47309;SDS011;33046;52.270;6.832;2023-04-21T09:30:17;17.75;;;15.88;;
47309;SDS011;33046;52.270;6.832;2023-04-21T09:32:25;16.65;;;13.50;;
47309;SDS011;33046;52.270;6.832;2023-04-21T09:34:31;16.23;;;14.52;;
47309;SDS011;33046;52.270;6.832;2023-04-21T09:36:38;16.73;;;13.77;;
47309;SDS011;33046;52.270;6.832;2023-04-21T09:41:14;15.73;;;13.90;;
47309;SDS011;33046;52.270;6.832;2023-04-21T09:43:23;14.52;;;13.13;;
47309;SDS011;33046;52.270;6.832;2023-04-21T09:45:30;14.30;;;12.80;;
47309;SDS011;33046;52.270;6.832;2023-04-21T09:47:42;15.70;;;13.88;;
47309;SDS011;33046;52.270;6.832;2023-04-21T09:49:50;19.50;;;14.40;;
47309;SDS011;33046;52.270;6.832;2023-04-21T09:51:57;15.30;;;13.80;;
47309;SDS011;33046;52.270;6.832;2023-04-21T09:54:20;15.65;;;14.15;;
47309;SDS011;33046;52.270;6.832;2023-04-21T09:56:35;16.48;;;14.77;;
47309;SDS011;33046;52.270;6.832;2023-04-21T09:58:47;14.73;;;13.20;;
47309;SDS011;33046;52.270;6.832;2023-04-21T10:00:57;15.75;;;14.02;;
47309;SDS011;33046;52.270;6.832;2023-04-21T10:03:04;15.65;;;14.15;;
47309;SDS011;33046;52.270;6.832;2023-04-21T10:05:12;17.67;;;14.07;;
47309;SDS011;33046;52.270;6.832;2023-04-21T10:07:19;16.00;;;14.30;;
47309;SDS011;33046;52.270;6.832;2023-04-21T10:09:29;15.30;;;13.75;;
47309;SDS011;33046;52.270;6.832;2023-04-21T10:11:38;15.10;;;13.55;;
47309;SDS011;33046;52.270;6.832;2023-04-21T10:13:47;15.35;;;13.73;;
47309;SDS011;33046;52.270;6.832;2023-04-21T10:16:00;16.20;;;14.38;;
47309;SDS011;33046;52.270;6.832;2023-04-21T10:20:18;16.50;;;14.73;;
47309;SDS011;33046;52.270;6.832;2023-04-21T10:22:25;16.00;;;14.10;;
47309;SDS011;33046;52.270;6.832;2023-04-21T10:24:35;15.98;;;14.30;;
47309;SDS011;33046;52.270;6.832;2023-04-21T10:26:43;18.35;;;14.30;;
47309;SDS011;33046;52.270;6.832;2023-04-21T10:28:55;19.80;;;14.43;;
47309;SDS011;33046;52.270;6.832;2023-04-21T10:31:14;19.40;;;14.50;;
47309;SDS011;33046;52.270;6.832;2023-04-21T10:33:22;18.70;;;14.90;;
47309;SDS011;33046;52.270;6.832;2023-04-21T10:38:05;15.55;;;13.95;;
47309;SDS011;33046;52.270;6.832;2023-04-21T10:40:31;16.33;;;14.50;;
47309;SDS011;33046;52.270;6.832;2023-04-21T10:42:48;15.70;;;13.98;;
47309;SDS011;33046;52.270;6.832;2023-04-21T10:45:04;18.15;;;16.00;;
47309;SDS011;33046;52.270;6.832;2023-04-21T10:47:13;15.98;;;13.57;;
47309;SDS011;33046;52.270;6.832;2023-04-21T10:49:30;18.30;;;15.18;;
47309;SDS011;33046;52.270;6.832;2023-04-21T10:54:12;18.30;;;14.10;;
47309;SDS011;33046;52.270;6.832;2023-04-21T10:56:19;15.80;;;13.80;;
47309;SDS011;33046;52.270;6.832;2023-04-21T10:58:27;21.30;;;15.48;;
47309;SDS011;33046;52.270;6.832;2023-04-21T11:00:36;15.02;;;13.52;;
47309;SDS011;33046;52.270;6.832;2023-04-21T11:02:43;17.38;;;13.70;;
47309;SDS011;33046;52.270;6.832;2023-04-21T11:04:57;17.00;;;14.18;;
47309;SDS011;33046;52.270;6.832;2023-04-21T11:07:06;17.58;;;14.60;;
47309;SDS011;33046;52.270;6.832;2023-04-21T11:09:15;16.80;;;13.98;;
47309;SDS011;33046;52.270;6.832;2023-04-21T11:11:22;16.58;;;14.88;;
47309;SDS011;33046;52.270;6.832;2023-04-21T11:13:29;16.42;;;14.82;;
47309;SDS011;33046;52.270;6.832;2023-04-21T11:15:37;16.45;;;13.70;;
47309;SDS011;33046;52.270;6.832;2023-04-21T11:17:44;18.05;;;14.50;;
47309;SDS011;33046;52.270;6.832;2023-04-21T11:19:52;16.35;;;14.23;;
47309;SDS011;33046;52.270;6.832;2023-04-21T11:21:59;17.27;;;12.77;;
47309;SDS011;33046;52.270;6.832;2023-04-21T11:24:07;20.98;;;15.48;;
47309;SDS011;33046;52.270;6.832;2023-04-21T11:26:14;16.65;;;13.85;;
47309;SDS011;33046;52.270;6.832;2023-04-21T11:28:21;15.23;;;13.18;;
47309;SDS011;33046;52.270;6.832;2023-04-21T11:30:31;16.52;;;13.30;;
47309;SDS011;33046;52.270;6.832;2023-04-21T11:32:42;15.80;;;12.73;;
47309;SDS011;33046;52.270;6.832;2023-04-21T11:34:51;18.17;;;13.85;;
47309;SDS011;33046;52.270;6.832;2023-04-21T11:36:59;16.63;;;14.38;;
47309;SDS011;33046;52.270;6.832;2023-04-21T11:39:06;17.60;;;12.82;;
47309;SDS011;33046;52.270;6.832;2023-04-21T11:41:19;15.32;;;12.70;;
47309;SDS011;33046;52.270;6.832;2023-04-21T11:43:26;17.88;;;13.98;;
47309;SDS011;33046;52.270;6.832;2023-04-21T11:45:33;15.10;;;13.18;;
47309;SDS011;33046;52.270;6.832;2023-04-21T11:47:40;15.32;;;13.75;;
47309;SDS011;33046;52.270;6.832;2023-04-21T11:49:49;15.45;;;12.73;;
47309;SDS011;33046;52.270;6.832;2023-04-21T11:51:57;16.73;;;13.32;;
47309;SDS011;33046;52.270;6.832;2023-04-21T11:54:05;14.85;;;13.00;;
47309;SDS011;33046;52.270;6.832;2023-04-21T11:56:15;14.68;;;12.93;;
47309;SDS011;33046;52.270;6.832;2023-04-21T11:58:23;16.73;;;14.23;;
47309;SDS011;33046;52.270;6.832;2023-04-21T12:00:30;15.00;;;13.45;;
47309;SDS011;33046;52.270;6.832;2023-04-21T12:02:37;15.35;;;13.40;;
47309;SDS011;33046;52.270;6.832;2023-04-21T12:04:44;18.52;;;13.75;;
47309;SDS011;33046;52.270;6.832;2023-04-21T12:07:04;16.80;;;13.38;;
47309;SDS011;33046;52.270;6.832;2023-04-21T12:09:15;15.18;;;13.00;;
47309;SDS011;33046;52.270;6.832;2023-04-21T12:11:23;14.00;;;12.60;;
47309;SDS011;33046;52.270;6.832;2023-04-21T12:13:30;17.60;;;13.85;;
47309;SDS011;33046;52.270;6.832;2023-04-21T12:15:36;15.57;;;12.70;;
47309;SDS011;33046;52.270;6.832;2023-04-21T12:17:43;15.05;;;12.85;;
47309;SDS011;33046;52.270;6.832;2023-04-21T12:19:51;13.60;;;12.35;;
47309;SDS011;33046;52.270;6.832;2023-04-21T12:21:59;15.98;;;11.90;;
47309;SDS011;33046;52.270;6.832;2023-04-21T12:24:06;14.93;;;13.30;;
47309;SDS011;33046;52.270;6.832;2023-04-21T12:26:13;13.82;;;12.63;;
47309;SDS011;33046;52.270;6.832;2023-04-21T12:28:19;15.50;;;13.43;;
47309;SDS011;33046;52.270;6.832;2023-04-21T12:30:26;14.20;;;12.55;;
47309;SDS011;33046;52.270;6.832;2023-04-21T12:32:33;13.68;;;12.07;;
47309;SDS011;33046;52.270;6.832;2023-04-21T12:34:40;13.82;;;11.48;;
47309;SDS011;33046;52.270;6.832;2023-04-21T12:36:46;13.20;;;11.90;;